Time;durP1;ratioP1;P1;durP2;ratioP2;P2;SDS_P1;SDS_P2;PMS_P1;PMS_P2;Temp;Humidity;BMP_temperature;BMP_pressure;BME280_temperature;BME280_humidity;BME280_pressure;Samples;Min_cycle;Max_cycle;Signal;HPM_P1;HPM_P2
2022/10/29 04:02:35;;;;;;;11.03;6.10;;;15.30;99.90;;;;;;4991418;23;20522;-66
2022/10/29 04:05:02;;;;;;;14.80;7.13;;;15.20;99.90;;;;;;4977022;28;20454;-66
2022/10/29 04:07:29;;;;;;;10.73;7.43;;;15.20;99.90;;;;;;4976522;28;20455;-66
2022/10/29 04:09:55;;;;;;;8.60;6.23;;;15.20;99.90;;;;;;4976253;28;20482;-66
2022/10/29 04:12:22;;;;;;;10.43;6.40;;;15.20;99.90;;;;;;4976382;28;20471;-66
2022/10/29 04:14:49;;;;;;;11.17;6.13;;;15.20;99.90;;;;;;4976005;28;20446;-66
2022/10/29 04:17:16;;;;;;;10.20;6.20;;;15.20;99.90;;;;;;4975947;28;20851;-66
2022/10/29 04:19:44;;;;;;;11.33;5.83;;;15.10;99.90;;;;;;4976072;28;20462;-66
2022/10/29 04:22:11;;;;;;;9.90;6.40;;;15.10;99.90;;;;;;4975934;28;20490;-65
2022/10/29 04:24:37;;;;;;;10.40;5.90;;;15.20;99.90;;;;;;4975891;28;20439;-66
2022/10/29 04:27:04;;;;;;;12.97;6.33;;;15.10;99.90;;;;;;4976056;28;20458;-66
2022/10/29 04:29:31;;;;;;;13.70;6.00;;;15.10;99.90;;;;;;4975847;28;20830;-66
2022/10/29 04:31:57;;;;;;;13.40;6.57;;;15.10;99.90;;;;;;4977024;28;20474;-66
2022/10/29 04:34:24;;;;;;;10.90;6.50;;;15.10;99.90;;;;;;4977721;28;20459;-66
2022/10/29 04:36:53;;;;;;;17.10;6.80;;;15.00;99.90;;;;;;4977751;28;20465;-66
2022/10/29 04:39:19;;;;;;;10.73;6.03;;;15.10;99.90;;;;;;4977797;28;20912;-66
2022/10/29 04:41:47;;;;;;;7.23;6.40;;;15.10;99.90;;;;;;4975311;28;20483;-66
2022/10/29 04:44:14;;;;;;;11.70;6.40;;;15.00;99.90;;;;;;4975421;28;20490;-66
2022/10/29 04:46:40;;;;;;;7.53;5.60;;;15.10;99.90;;;;;;4975427;28;20462;-66
2022/10/29 04:49:07;;;;;;;7.50;5.87;;;15.10;99.90;;;;;;4975276;28;20941;-66
2022/10/29 04:51:34;;;;;;;8.43;6.67;;;15.10;99.90;;;;;;4975209;28;20478;-65
2022/10/29 04:54:02;;;;;;;13.13;7.40;;;15.10;99.90;;;;;;4975206;28;20454;-65
2022/10/29 04:56:29;;;;;;;7.77;5.50;;;15.10;99.90;;;;;;4975286;28;20505;-65
2022/10/29 04:58:56;;;;;;;11.53;6.73;;;15.10;99.90;;;;;;4975291;28;20463;-65
2022/10/29 05:01:22;;;;;;;10.80;6.43;;;15.10;99.90;;;;;;4974846;28;20537;-66
2022/10/29 05:03:49;;;;;;;12.53;6.80;;;15.00;99.90;;;;;;4975125;28;20466;-66
2022/10/29 05:06:16;;;;;;;6.90;6.20;;;15.00;99.90;;;;;;4975128;28;20458;-66
2022/10/29 05:08:42;;;;;;;13.13;6.93;;;15.00;99.90;;;;;;4975125;28;20454;-65
2022/10/29 05:11:10;;;;;;;7.37;5.97;;;15.00;99.90;;;;;;4975044;28;20474;-65
2022/10/29 05:13:37;;;;;;;15.60;7.10;;;14.90;99.90;;;;;;4975106;28;20521;-65
2022/10/29 05:16:04;;;;;;;8.10;6.90;;;14.90;99.90;;;;;;4974885;28;20454;-65
2022/10/29 05:18:31;;;;;;;14.50;7.33;;;14.90;99.90;;;;;;4975004;28;20513;-65
2022/10/29 05:20:58;;;;;;;11.20;7.00;;;14.90;99.90;;;;;;4974929;28;20478;-65
2022/10/29 05:23:25;;;;;;;14.37;6.90;;;14.80;99.90;;;;;;4974965;28;20451;-65
2022/10/29 05:25:51;;;;;;;12.70;7.37;;;14.80;99.90;;;;;;4975008;28;20458;-65
2022/10/29 05:28:21;;;;;;;15.33;7.10;;;14.80;99.90;;;;;;4974784;28;20455;-65
2022/10/29 05:30:49;;;;;;;10.23;6.43;;;14.80;99.90;;;;;;4975081;28;20478;-65
2022/10/29 05:33:18;;;;;;;8.20;5.80;;;14.80;99.90;;;;;;4975027;28;20463;-65
2022/10/29 05:35:45;;;;;;;9.03;7.03;;;14.80;99.90;;;;;;4974846;28;20459;-65
2022/10/29 05:38:13;;;;;;;8.33;6.70;;;14.80;99.90;;;;;;4975189;28;20459;-65
2022/10/29 05:40:41;;;;;;;8.93;5.73;;;14.80;99.90;;;;;;4974967;28;20482;-65
2022/10/29 05:43:08;;;;;;;9.60;7.17;;;14.80;99.90;;;;;;4974615;28;20961;-65
2022/10/29 05:45:36;;;;;;;9.93;6.80;;;14.80;99.90;;;;;;4975052;28;20454;-65
2022/10/29 05:48:03;;;;;;;8.60;6.50;;;14.80;99.90;;;;;;4974854;28;20640;-65
2022/10/29 05:50:31;;;;;;;21.03;7.13;;;14.70;99.90;;;;;;4974819;28;20485;-65
2022/10/29 05:53:00;;;;;;;18.17;6.60;;;14.70;99.90;;;;;;4974822;28;20455;-65
2022/10/29 05:55:27;;;;;;;8.90;6.70;;;14.60;99.90;;;;;;4974816;28;20454;-66
2022/10/29 05:57:55;;;;;;;11.30;7.03;;;14.60;99.90;;;;;;4974743;28;20454;-66
2022/10/29 06:00:22;;;;;;;8.97;6.20;;;14.60;99.90;;;;;;4974425;28;20447;-65
2022/10/29 06:02:50;;;;;;;13.60;6.53;;;14.60;99.90;;;;;;4975229;28;20459;-65
2022/10/29 06:05:17;;;;;;;11.70;7.10;;;14.60;99.90;;;;;;4974650;28;20455;-66
2022/10/29 06:07:43;;;;;;;14.20;6.63;;;14.60;99.90;;;;;;4974301;28;20873;-66
2022/10/29 06:10:10;;;;;;;11.80;6.13;;;14.50;99.90;;;;;;4974907;28;20459;-66
2022/10/29 06:12:37;;;;;;;11.60;6.20;;;14.60;99.90;;;;;;4974466;28;20462;-66
2022/10/29 06:15:04;;;;;;;8.43;6.50;;;14.50;99.90;;;;;;4974482;28;20516;-66
2022/10/29 06:17:31;;;;;;;12.00;6.40;;;14.50;99.90;;;;;;4974178;28;20458;-66
2022/10/29 06:19:59;;;;;;;16.20;6.90;;;14.60;99.90;;;;;;4974112;28;20459;-66
2022/10/29 06:22:25;;;;;;;9.50;6.53;;;14.60;99.90;;;;;;4975350;28;20882;-67
2022/10/29 06:24:52;;;;;;;10.07;6.53;;;14.60;99.90;;;;;;4978321;28;20863;-66
2022/10/29 06:27:18;;;;;;;12.13;7.10;;;14.60;99.90;;;;;;4979912;28;20451;-67
2022/10/29 06:29:45;;;;;;;8.10;6.13;;;14.70;99.90;;;;;;4977983;28;20455;-67
2022/10/29 06:32:12;;;;;;;8.90;6.80;;;14.70;99.90;;;;;;4977841;28;20466;-67
2022/10/29 06:34:38;;;;;;;13.80;6.90;;;14.70;99.90;;;;;;4977815;28;20455;-67
2022/10/29 06:37:06;;;;;;;9.50;7.10;;;14.80;99.90;;;;;;4977715;28;20505;-68
2022/10/29 06:39:33;;;;;;;11.20;7.67;;;14.80;99.90;;;;;;4977732;28;20513;-67
2022/10/29 06:42:00;;;;;;;8.90;6.63;;;14.80;99.90;;;;;;4977564;28;20482;-67
2022/10/29 06:44:26;;;;;;;13.10;7.57;;;14.90;99.90;;;;;;4977457;28;20803;-64
2022/10/29 06:46:54;;;;;;;11.80;7.07;;;14.90;99.90;;;;;;4977624;28;20856;-68
2022/10/29 06:49:20;;;;;;;15.63;7.50;;;15.00;99.90;;;;;;4977416;28;20942;-66
2022/10/29 06:51:47;;;;;;;11.50;6.87;;;15.00;99.90;;;;;;4977448;28;20475;-69
2022/10/29 06:54:15;;;;;;;9.07;7.70;;;15.10;99.90;;;;;;4977429;28;20459;-67
2022/10/29 06:56:42;;;;;;;13.67;7.43;;;15.20;99.90;;;;;;4977291;28;21016;-68
2022/10/29 06:59:09;;;;;;;16.03;8.37;;;15.20;99.90;;;;;;4977234;28;20466;-67
2022/10/29 07:01:36;;;;;;;15.30;7.90;;;15.30;99.90;;;;;;4977231;28;20486;-67
2022/10/29 07:04:02;;;;;;;14.50;7.30;;;15.30;99.90;;;;;;4976948;28;20455;-68
2022/10/29 07:06:33;;;;;;;12.47;6.83;;;15.40;99.90;;;;;;4976894;28;20833;-68
2022/10/29 07:08:59;;;;;;;12.10;6.97;;;15.40;99.90;;;;;;4977599;28;20474;-68
2022/10/29 07:11:27;;;;;;;9.73;6.73;;;15.50;99.90;;;;;;4977619;28;20479;-67
2022/10/29 07:13:54;;;;;;;10.00;7.37;;;15.50;99.90;;;;;;4977181;28;20525;-67
2022/10/29 07:16:21;;;;;;;9.77;7.20;;;15.60;99.90;;;;;;4977240;28;20450;-67
2022/10/29 07:18:47;;;;;;;9.50;6.60;;;15.90;99.90;;;;;;4977369;28;20459;-67
2022/10/29 07:21:14;;;;;;;11.67;7.00;;;16.20;99.90;;;;;;4976993;28;20490;-64
2022/10/29 07:23:41;;;;;;;13.17;7.20;;;16.70;99.90;;;;;;4977030;28;20994;-64
2022/10/29 07:26:08;;;;;;;12.63;6.67;;;17.20;99.90;;;;;;4977081;28;20462;-67
2022/10/29 07:28:35;;;;;;;12.00;7.37;;;17.80;99.90;;;;;;4977213;28;20454;-66
2022/10/29 07:31:02;;;;;;;7.30;6.00;;;18.40;99.90;;;;;;4976781;28;20474;-67
2022/10/29 07:33:29;;;;;;;11.83;7.00;;;18.90;99.90;;;;;;4976965;28;20478;-66
2022/10/29 07:35:57;;;;;;;18.23;6.27;;;19.50;99.90;;;;;;4976451;28;20454;-67
2022/10/29 07:38:24;;;;;;;7.90;6.10;;;19.90;99.90;;;;;;4976550;28;20495;-67
2022/10/29 07:40:52;;;;;;;10.70;6.50;;;20.10;99.90;;;;;;4976445;28;20482;-67
2022/10/29 07:43:20;;;;;;;9.77;6.37;;;20.30;99.90;;;;;;4976433;28;21090;-66
2022/10/29 07:45:49;;;;;;;8.50;6.60;;;20.70;99.90;;;;;;4976468;28;20459;-68
2022/10/29 07:48:16;;;;;;;8.17;6.33;;;21.20;99.90;;;;;;4976326;28;20462;-68
2022/10/29 07:50:43;;;;;;;13.63;6.00;;;21.70;99.90;;;;;;4976369;28;20478;-67
2022/10/29 07:53:10;;;;;;;15.53;6.70;;;22.00;99.90;;;;;;4975831;28;20933;-68
2022/10/29 07:55:37;;;;;;;11.03;7.17;;;22.30;99.90;;;;;;4976262;28;20522;-67
2022/10/29 07:58:06;;;;;;;12.73;6.50;;;22.70;99.90;;;;;;4976302;28;20470;-67
2022/10/29 08:00:34;;;;;;;9.70;6.23;;;22.90;99.90;;;;;;4976002;28;20470;-67
2022/10/29 08:03:03;;;;;;;13.20;8.67;;;23.20;99.90;;;;;;4976047;28;20466;-66
2022/10/29 08:05:30;;;;;;;9.70;6.77;;;23.30;99.90;;;;;;4976102;28;20454;-66
2022/10/29 08:07:57;;;;;;;8.57;6.00;;;23.00;99.90;;;;;;4975967;28;20513;-67
2022/10/29 08:10:25;;;;;;;17.03;6.20;;;22.50;99.90;;;;;;4975832;28;20455;-67
2022/10/29 08:12:52;;;;;;;13.20;7.93;;;22.00;99.90;;;;;;4975776;28;20458;-67
2022/10/29 08:15:19;;;;;;;9.73;7.10;;;21.40;99.90;;;;;;4975765;28;20458;-66
2022/10/29 08:17:46;;;;;;;10.43;7.10;;;20.90;99.90;;;;;;4975901;28;20458;-67
2022/10/29 08:20:15;;;;;;;11.67;7.03;;;20.30;99.90;;;;;;4976136;28;20455;-66
2022/10/29 08:22:42;;;;;;;15.07;6.67;;;19.90;99.90;;;;;;4975797;28;20479;-66
2022/10/29 08:25:09;;;;;;;14.37;6.73;;;19.70;99.90;;;;;;4976680;28;20462;-68
2022/10/29 08:27:36;;;;;;;18.80;5.87;;;19.60;99.90;;;;;;4977686;28;20462;-67
2022/10/29 08:30:04;;;;;;;17.43;6.30;;;19.50;99.90;;;;;;4978007;28;20946;-66
2022/10/29 08:32:30;;;;;;;16.40;7.30;;;19.40;99.90;;;;;;4976122;28;20475;-67
2022/10/29 08:34:57;;;;;;;10.30;6.10;;;19.30;99.90;;;;;;4976872;28;20887;-67
2022/10/29 08:37:25;;;;;;;11.60;7.00;;;19.20;99.90;;;;;;4976451;28;20851;-66
2022/10/29 08:39:51;;;;;;;8.27;6.03;;;19.30;99.90;;;;;;4975818;28;20510;-68
2022/10/29 08:42:35;;;;;;;13.27;7.20;;;19.40;99.90;;;;;;4976562;28;20478;-67
2022/10/29 08:45:15;;;;;;;10.17;8.07;;;19.50;99.90;;;;;;4975715;28;20981;-67
2022/10/29 08:47:56;;;;;;;10.23;6.73;;;19.60;99.90;;;;;;4974956;28;20442;-67
2022/10/29 08:50:28;;;;;;;14.60;6.83;;;19.70;99.90;;;;;;4975138;28;20922;-66
2022/10/29 08:52:56;;;;;;;11.87;6.50;;;19.90;99.90;;;;;;4975587;28;20435;-67
2022/10/29 08:55:26;;;;;;;15.77;7.43;;;20.00;99.90;;;;;;4975359;28;20494;-67
2022/10/29 08:57:59;;;;;;;10.50;6.40;;;20.20;99.90;;;;;;4974870;28;20827;-67
2022/10/29 09:00:30;;;;;;;14.20;8.40;;;20.40;99.90;;;;;;4975075;28;20447;-67
2022/10/29 09:02:59;;;;;;;10.23;6.43;;;20.60;99.90;;;;;;4975222;28;20832;-67
2022/10/29 09:05:31;;;;;;;9.70;6.20;;;20.80;99.90;;;;;;4974980;28;20558;-67
2022/10/29 09:08:19;;;;;;;10.40;5.83;;;21.10;99.90;;;;;;4975047;28;20472;-67
2022/10/29 09:10:51;;;;;;;11.00;7.33;;;21.20;99.90;;;;;;4974945;28;20482;-67
2022/10/29 09:13:35;;;;;;;15.17;6.17;;;21.50;99.90;;;;;;4974952;28;20505;-67
2022/10/29 09:16:18;;;;;;;12.03;7.20;;;22.40;99.90;;;;;;4974908;28;20446;-67
2022/10/29 09:19:07;;;;;;;13.10;8.17;;;23.40;99.90;;;;;;4974973;28;20482;-67
2022/10/29 09:21:40;;;;;;;19.50;7.83;;;24.60;99.90;;;;;;4974842;28;20475;-66
2022/10/29 09:24:14;;;;;;;12.10;6.37;;;25.90;99.90;;;;;;4974712;28;20459;-70
2022/10/29 09:26:50;;;;;;;15.23;7.30;;;27.10;99.90;;;;;;4975012;28;20446;-69
2022/10/29 09:29:35;;;;;;;13.03;6.67;;;28.00;99.90;;;;;;4974783;28;20439;-70
2022/10/29 09:32:05;;;;;;;12.97;6.53;;;29.00;97.50;;;;;;4974637;28;20482;-70
2022/10/29 09:34:35;;;;;;;15.43;5.70;;;29.80;93.10;;;;;;4974799;28;20505;-69
2022/10/29 09:37:04;;;;;;;7.70;5.33;;;30.40;90.80;;;;;;4974835;28;20447;-69
2022/10/29 09:39:39;;;;;;;6.13;5.03;;;31.00;86.10;;;;;;4975514;28;20459;-69
2022/10/29 09:42:11;;;;;;;12.60;5.97;;;31.40;84.70;;;;;;4975013;28;20481;-69
2022/10/29 09:44:43;;;;;;;12.60;5.60;;;31.90;81.80;;;;;;4974801;28;20439;-70
2022/10/29 09:47:19;;;;;;;13.30;5.80;;;32.30;76.90;;;;;;4974645;28;20906;-70
2022/10/29 09:49:54;;;;;;;13.83;6.80;;;32.30;74.20;;;;;;4974416;28;20846;-67
2022/10/29 09:52:23;;;;;;;10.90;6.80;;;32.40;73.90;;;;;;4974642;28;20476;-67
2022/10/29 09:54:53;;;;;;;13.97;7.40;;;32.40;75.20;;;;;;4974669;28;20439;-68
2022/10/29 09:57:23;;;;;;;10.00;5.53;;;32.70;72.90;;;;;;4974665;28;20486;-66
2022/10/29 09:59:53;;;;;;;9.20;6.10;;;32.90;71.60;;;;;;4976526;28;20505;-67
2022/10/29 10:02:27;;;;;;;13.27;6.10;;;33.00;70.50;;;;;;4978091;28;20482;-66
2022/10/29 10:04:57;;;;;;;9.40;5.80;;;33.10;72.30;;;;;;4978340;28;20443;-66
2022/10/29 10:07:23;;;;;;;15.00;5.27;;;33.10;70.90;;;;;;4978096;28;20512;-66
2022/10/29 10:09:56;;;;;;;10.17;5.37;;;33.30;70.30;;;;;;4978229;28;20504;-66
2022/10/29 10:12:25;;;;;;;11.50;5.30;;;33.60;71.00;;;;;;4978196;28;20552;-67
2022/10/29 10:15:08;;;;;;;7.07;5.03;;;33.90;66.10;;;;;;4978366;28;20462;-66
2022/10/29 10:18:00;;;;;;;16.20;5.77;;;34.00;62.50;;;;;;4978302;28;20454;-66
2022/10/29 10:20:38;;;;;;;12.20;5.80;;;34.10;63.80;;;;;;4978108;28;20450;-67
2022/10/29 10:23:21;;;;;;;9.10;5.23;;;34.20;62.10;;;;;;4978693;28;20461;-67
2022/10/29 10:25:50;;;;;;;9.80;4.83;;;34.20;62.90;;;;;;4977560;28;20897;-66
2022/10/29 10:28:19;;;;;;;9.03;4.80;;;33.80;63.30;;;;;;4978002;28;20504;-67
2022/10/29 10:31:05;;;;;;;13.20;6.13;;;33.80;64.40;;;;;;4978329;28;20484;-67
2022/10/29 10:33:33;;;;;;;18.97;8.83;;;33.90;61.30;;;;;;4978509;28;20490;-67
2022/10/29 10:36:03;;;;;;;11.53;5.90;;;33.60;60.40;;;;;;4977734;28;20505;-68
2022/10/29 10:38:37;;;;;;;14.73;6.30;;;33.10;62.00;;;;;;4977710;28;20458;-66
2022/10/29 10:41:08;;;;;;;11.17;5.40;;;32.90;63.10;;;;;;4977708;28;20484;-67
2022/10/29 10:43:35;;;;;;;12.20;6.40;;;32.20;63.30;;;;;;4977511;28;20463;-67
2022/10/29 10:46:06;;;;;;;15.07;6.70;;;31.80;67.50;;;;;;4977793;28;20550;-67
2022/10/29 10:48:33;;;;;;;9.50;5.67;;;31.50;65.70;;;;;;4978376;28;20439;-67
2022/10/29 10:51:25;;;;;;;16.10;6.00;;;31.10;65.80;;;;;;4977867;28;20537;-67
2022/10/29 10:53:52;;;;;;;10.40;4.40;;;30.60;66.30;;;;;;4963844;28;20878;-67
2022/10/29 10:56:22;;;;;;;6.90;4.90;;;30.10;67.80;;;;;;4977605;28;20779;-67
2022/10/29 10:59:06;;;;;;;12.40;5.13;;;29.80;69.30;;;;;;4977686;28;20450;-68
2022/10/29 11:01:38;;;;;;;13.00;5.50;;;29.50;70.60;;;;;;4977425;28;20486;-68
2022/10/29 11:04:14;;;;;;;9.47;4.70;;;29.20;68.80;;;;;;4977227;28;20463;-67
2022/10/29 11:06:44;;;;;;;11.23;5.67;;;28.90;69.80;;;;;;4977848;28;20506;-68
2022/10/29 11:09:19;;;;;;;10.90;5.50;;;28.50;72.90;;;;;;4977460;28;20461;-67
2022/10/29 11:11:51;;;;;;;11.63;5.33;;;28.40;72.30;;;;;;4976944;28;20569;-67
2022/10/29 11:14:28;;;;;;;13.23;5.97;;;28.40;71.60;;;;;;4977215;28;20777;-67
2022/10/29 11:16:57;;;;;;;9.90;4.97;;;28.20;72.00;;;;;;4977165;28;20443;-66
2022/10/29 11:19:30;;;;;;;8.80;4.87;;;28.10;73.20;;;;;;4976970;28;20465;-67
2022/10/29 11:22:04;;;;;;;8.27;5.30;;;28.00;73.40;;;;;;4977154;28;20479;-68
2022/10/29 11:24:40;;;;;;;7.23;4.43;;;28.00;75.40;;;;;;4976490;28;21032;-67
2022/10/29 11:27:27;;;;;;;10.70;5.13;;;27.90;73.20;;;;;;4976791;28;20493;-67
2022/10/29 11:30:01;;;;;;;8.30;5.23;;;27.90;74.90;;;;;;4977084;28;20470;-67
2022/10/29 11:32:34;;;;;;;11.57;4.50;;;27.70;74.50;;;;;;4976474;28;20932;-67
2022/10/29 11:35:05;;;;;;;8.80;4.90;;;27.60;75.90;;;;;;4976755;28;20768;-67
2022/10/29 11:37:38;;;;;;;9.53;4.87;;;27.60;76.20;;;;;;4976693;28;20501;-67
2022/10/29 11:40:12;;;;;;;15.90;5.50;;;27.50;77.50;;;;;;4976595;28;20562;-67
2022/10/29 11:42:40;;;;;;;11.33;5.13;;;27.60;79.90;;;;;;4976460;28;20474;-67
2022/10/29 11:45:13;;;;;;;8.40;4.40;;;27.50;77.30;;;;;;4976737;28;20458;-68
2022/10/29 11:47:56;;;;;;;7.90;4.93;;;27.60;78.70;;;;;;4976808;28;20455;-66
2022/10/29 11:50:31;;;;;;;10.60;4.40;;;27.60;81.60;;;;;;4976784;28;20476;-67
2022/10/29 11:53:09;;;;;;;12.97;5.00;;;27.60;79.40;;;;;;4976335;28;20439;-67
2022/10/29 11:55:43;;;;;;;10.43;5.73;;;27.60;76.20;;;;;;4976192;28;20442;-67
2022/10/29 11:58:17;;;;;;;9.93;5.07;;;27.50;76.20;;;;;;4976170;28;20438;-67
2022/10/29 12:00:56;;;;;;;8.03;4.20;;;27.50;78.70;;;;;;4975759;28;20886;-67
2022/10/29 12:03:38;;;;;;;9.80;5.27;;;27.50;76.60;;;;;;4976302;28;20466;-68
2022/10/29 12:06:14;;;;;;;11.93;4.53;;;27.50;78.20;;;;;;4976130;28;20447;-68
2022/10/29 12:08:53;;;;;;;12.00;5.10;;;27.60;76.40;;;;;;4975945;28;20462;-68
2022/10/29 12:11:24;;;;;;;8.20;4.20;;;27.60;75.90;;;;;;4975635;28;20478;-68
2022/10/29 12:14:00;;;;;;;10.10;4.83;;;27.60;77.00;;;;;;4975712;28;20435;-68
2022/10/29 12:16:36;;;;;;;11.33;4.73;;;27.70;76.60;;;;;;4975624;28;20814;-68
2022/10/29 12:19:13;;;;;;;8.87;4.43;;;27.70;77.30;;;;;;4976062;28;20439;-68
2022/10/29 12:21:50;;;;;;;9.47;4.50;;;27.70;75.90;;;;;;4978494;28;20505;-68
2022/10/29 12:24:28;;;;;;;10.57;5.80;;;27.80;77.50;;;;;;4975664;28;20466;-67
2022/10/29 12:27:03;;;;;;;7.30;4.30;;;27.90;77.30;;;;;;4976081;28;20853;-67
2022/10/29 12:29:38;;;;;;;8.57;4.83;;;28.00;78.30;;;;;;4975947;28;20443;-68
2022/10/29 12:32:12;;;;;;;10.70;4.70;;;28.10;77.70;;;;;;4975384;28;20478;-68
2022/10/29 12:34:45;;;;;;;6.53;4.90;;;28.10;78.60;;;;;;4975427;28;20853;-67
2022/10/29 12:37:17;;;;;;;11.33;4.70;;;28.20;80.40;;;;;;4975434;28;20490;-68
2022/10/29 12:39:48;;;;;;;10.77;4.40;;;28.30;81.50;;;;;;4975336;28;20449;-67
2022/10/29 12:42:20;;;;;;;8.83;4.30;;;28.40;81.90;;;;;;4975104;28;20474;-68
2022/10/29 12:45:02;;;;;;;8.10;4.77;;;28.40;80.80;;;;;;4974722;28;21020;-67
2022/10/29 12:47:38;;;;;;;14.50;5.23;;;28.40;81.60;;;;;;4974765;28;20807;-69
2022/10/29 12:50:15;;;;;;;7.27;4.67;;;28.40;81.10;;;;;;4975177;28;20450;-68
2022/10/29 12:52:46;;;;;;;10.00;4.10;;;28.30;81.40;;;;;;4975033;28;20485;-68
2022/10/29 12:55:15;;;;;;;15.23;4.87;;;28.20;82.90;;;;;;4975041;28;20831;-68
2022/10/29 12:57:41;;;;;;;8.97;4.70;;;28.10;83.10;;;;;;4974971;28;20458;-68
2022/10/29 13:00:43;;;;;;;11.70;4.57;;;28.10;82.50;;;;;;4974769;28;20454;-67
2022/10/29 13:03:10;;;;;;;12.33;4.83;;;28.00;84.90;;;;;;4974725;28;21000;-68
2022/10/29 13:05:39;;;;;;;5.27;4.17;;;28.00;86.30;;;;;;4975756;28;20461;-68
2022/10/29 13:08:27;;;;;;;8.20;5.10;;;28.00;84.80;;;;;;4975402;28;20455;-69
2022/10/29 13:10:56;;;;;;;7.87;4.47;;;28.00;84.60;;;;;;4975059;28;20814;-68
2022/10/29 13:13:37;;;;;;;10.27;5.17;;;28.00;84.70;;;;;;4975079;28;20454;-68
2022/10/29 13:16:14;;;;;;;12.60;4.43;;;28.00;85.10;;;;;;4975232;28;20497;-68
2022/10/29 13:18:54;;;;;;;11.73;4.30;;;28.00;84.70;;;;;;4975033;28;20497;-68
2022/10/29 13:21:59;;;;;;;7.70;4.13;;;27.90;82.00;;;;;;4975196;28;20478;-68
2022/10/29 13:24:27;;;;;;;12.03;5.97;;;27.80;81.60;;;;;;4974565;28;21023;-68
2022/10/29 13:27:04;;;;;;;19.80;5.87;;;27.70;82.90;;;;;;4975177;28;20462;-68
2022/10/29 13:29:45;;;;;;;9.10;5.47;;;27.50;82.20;;;;;;4975155;28;20529;-68
2022/10/29 13:32:33;;;;;;;16.90;7.43;;;27.30;83.60;;;;;;4975162;28;20475;-68
2022/10/29 13:35:01;;;;;;;13.13;8.60;;;27.10;83.70;;;;;;4978887;28;20450;-67
2022/10/29 13:38:10;;;;;;;14.17;7.87;;;27.00;84.70;;;;;;4978805;28;20462;-67
2022/10/29 13:41:07;;;;;;;13.20;6.10;;;27.00;86.10;;;;;;4978469;28;20928;-67
2022/10/29 13:43:34;;;;;;;6.40;4.63;;;26.90;85.80;;;;;;4978878;28;20463;-67
2022/10/29 13:46:21;;;;;;;15.33;4.90;;;26.70;86.10;;;;;;4978621;28;20481;-67
2022/10/29 13:48:51;;;;;;;11.57;5.20;;;26.60;86.10;;;;;;4978564;28;20451;-67
2022/10/29 13:51:24;;;;;;;10.00;5.83;;;26.50;87.10;;;;;;4978242;28;21056;-67
2022/10/29 13:53:54;;;;;;;15.83;5.37;;;26.30;86.80;;;;;;4979108;28;20534;-67
2022/10/29 13:56:30;;;;;;;9.30;4.90;;;26.30;88.40;;;;;;4978571;28;20442;-67
2022/10/29 13:59:00;;;;;;;8.57;5.10;;;26.30;88.90;;;;;;4978357;28;20442;-66
2022/10/29 14:01:28;;;;;;;8.80;4.90;;;26.20;89.00;;;;;;4978236;28;20493;-67
2022/10/29 14:04:02;;;;;;;11.03;4.97;;;26.10;89.90;;;;;;4978833;28;20485;-66
2022/10/29 14:06:33;;;;;;;12.97;5.83;;;26.10;90.00;;;;;;4978378;28;20470;-66
2022/10/29 14:09:11;;;;;;;15.90;5.30;;;26.00;90.40;;;;;;4977995;28;20910;-65
2022/10/29 14:11:41;;;;;;;13.60;5.80;;;26.00;90.40;;;;;;4978163;28;20477;-66
2022/10/29 14:14:26;;;;;;;10.13;5.63;;;26.00;90.80;;;;;;4978196;28;20498;-66
2022/10/29 14:17:10;;;;;;;13.47;5.67;;;26.00;91.10;;;;;;4977727;28;20980;-65
2022/10/29 14:19:42;;;;;;;9.03;4.80;;;26.00;91.50;;;;;;4978018;28;20446;-67
2022/10/29 14:22:32;;;;;;;13.17;5.60;;;26.00;91.70;;;;;;4977680;28;20531;-66
2022/10/29 14:24:59;;;;;;;10.87;6.07;;;26.00;91.90;;;;;;4977341;28;21024;-66
2022/10/29 14:27:26;;;;;;;10.70;5.60;;;26.00;92.30;;;;;;4977715;28;20535;-65
2022/10/29 14:29:53;;;;;;;9.63;5.10;;;26.00;92.90;;;;;;4977656;28;20505;-67
2022/10/29 14:32:21;;;;;;;15.00;6.57;;;26.00;92.50;;;;;;4977589;28;20478;-66
2022/10/29 14:34:50;;;;;;;12.83;5.47;;;26.00;92.90;;;;;;4977424;28;20489;-67
2022/10/29 14:37:23;;;;;;;9.63;6.20;;;26.00;93.40;;;;;;4977686;28;20442;-67
2022/10/29 14:39:51;;;;;;;13.23;5.70;;;26.00;93.50;;;;;;4977343;28;20986;-67
2022/10/29 14:42:24;;;;;;;15.07;5.30;;;26.00;93.90;;;;;;4977633;28;20533;-67
2022/10/29 14:44:54;;;;;;;12.73;6.50;;;26.00;93.90;;;;;;4976637;28;20467;-67
2022/10/29 14:47:24;;;;;;;17.10;5.87;;;25.80;93.70;;;;;;4977528;28;20453;-67
2022/10/29 14:49:54;;;;;;;15.57;7.10;;;25.70;94.30;;;;;;4977147;28;20442;-67
2022/10/29 14:52:28;;;;;;;11.30;6.37;;;25.60;94.70;;;;;;4977062;28;20985;-67
2022/10/29 14:54:57;;;;;;;10.33;6.63;;;25.50;94.90;;;;;;4976943;28;20526;-66
2022/10/29 14:57:26;;;;;;;14.50;7.20;;;25.40;95.40;;;;;;4977051;28;20455;-67
2022/10/29 14:59:54;;;;;;;18.33;6.37;;;25.20;95.80;;;;;;4976950;28;20863;-66
2022/10/29 15:02:22;;;;;;;10.83;6.50;;;25.10;95.90;;;;;;4976690;28;20475;-67
2022/10/29 15:04:50;;;;;;;14.47;5.87;;;25.00;96.30;;;;;;4977017;28;20479;-67
2022/10/29 15:07:29;;;;;;;14.07;6.17;;;24.80;96.50;;;;;;4977177;28;20501;-67
2022/10/29 15:10:25;;;;;;;13.87;6.20;;;24.70;97.10;;;;;;4976868;28;20911;-67
2022/10/29 15:12:53;;;;;;;10.60;6.37;;;24.60;97.40;;;;;;4972198;28;20455;-67
2022/10/29 15:15:26;;;;;;;17.27;6.23;;;24.50;97.30;;;;;;4977099;28;20455;-67
2022/10/29 15:17:57;;;;;;;10.20;5.97;;;24.40;97.60;;;;;;4977000;28;20431;-67
2022/10/29 15:20:27;;;;;;;15.63;6.00;;;24.30;97.60;;;;;;4976942;28;20555;-67
2022/10/29 15:22:57;;;;;;;10.20;6.27;;;24.20;97.50;;;;;;4976613;28;20981;-67
2022/10/29 15:25:27;;;;;;;16.30;6.47;;;24.10;98.10;;;;;;4976760;28;20482;-67
2022/10/29 15:27:54;;;;;;;12.23;6.50;;;23.90;98.30;;;;;;4976456;28;20501;-67
2022/10/29 15:30:30;;;;;;;14.67;5.63;;;23.80;98.60;;;;;;4976597;28;20439;-67
2022/10/29 15:32:59;;;;;;;16.80;5.83;;;23.80;98.80;;;;;;4976848;28;20497;-67
2022/10/29 15:35:25;;;;;;;13.07;5.67;;;23.70;99.00;;;;;;4976457;28;20486;-67
2022/10/29 15:37:52;;;;;;;12.13;5.67;;;23.60;99.00;;;;;;4976847;28;20458;-67
2022/10/29 15:40:22;;;;;;;12.37;6.10;;;23.50;99.00;;;;;;4976382;28;20455;-67
2022/10/29 15:42:49;;;;;;;15.73;5.77;;;23.50;99.20;;;;;;4976567;28;20505;-67
2022/10/29 15:45:19;;;;;;;13.20;6.40;;;23.40;99.30;;;;;;4976259;28;20479;-67
2022/10/29 15:47:48;;;;;;;16.83;6.20;;;23.40;99.30;;;;;;4976416;28;20549;-67
2022/10/29 15:50:17;;;;;;;11.03;6.33;;;23.30;98.80;;;;;;4976378;28;20912;-66
2022/10/29 15:52:46;;;;;;;11.43;6.60;;;23.30;98.80;;;;;;4976315;28;20541;-66
2022/10/29 15:55:21;;;;;;;12.20;7.93;;;23.20;98.90;;;;;;4976195;28;20439;-66
2022/10/29 15:57:50;;;;;;;16.83;8.93;;;23.20;98.80;;;;;;4975176;28;20466;-66
2022/10/29 16:00:18;;;;;;;19.80;8.87;;;23.10;98.60;;;;;;4976041;28;20462;-66
2022/10/29 16:02:45;;;;;;;10.57;7.37;;;23.10;98.70;;;;;;4976304;28;20526;-66
2022/10/29 16:05:13;;;;;;;16.60;8.60;;;23.10;98.90;;;;;;4975924;28;20474;-66
2022/10/29 16:07:40;;;;;;;12.90;8.27;;;23.00;99.10;;;;;;4975902;28;20462;-66
2022/10/29 16:10:14;;;;;;;14.97;8.57;;;23.00;99.30;;;;;;4976155;28;20521;-66
2022/10/29 16:12:41;;;;;;;12.00;8.80;;;22.90;99.50;;;;;;4975444;28;20478;-67
2022/10/29 16:15:13;;;;;;;20.47;9.20;;;22.90;99.70;;;;;;4975549;28;20849;-67
2022/10/29 16:17:40;;;;;;;17.00;9.70;;;22.80;99.90;;;;;;4975810;28;20851;-67
2022/10/29 16:20:09;;;;;;;17.70;9.20;;;22.80;99.90;;;;;;4975525;28;20458;-68
2022/10/29 16:22:35;;;;;;;18.60;8.57;;;22.70;99.90;;;;;;4975510;28;21044;-68
2022/10/29 16:25:02;;;;;;;14.13;9.13;;;22.70;99.90;;;;;;4975539;28;20997;-67
2022/10/29 16:27:29;;;;;;;24.23;8.57;;;22.70;99.90;;;;;;4975387;28;20814;-67
2022/10/29 16:29:55;;;;;;;13.80;8.37;;;22.70;99.90;;;;;;4975585;28;20935;-67
2022/10/29 16:32:24;;;;;;;10.63;7.77;;;22.60;99.90;;;;;;4975410;28;20482;-67
2022/10/29 16:34:52;;;;;;;11.37;6.67;;;22.60;99.90;;;;;;4975741;28;20462;-67
2022/10/29 16:37:19;;;;;;;16.03;7.77;;;22.60;99.90;;;;;;4975337;28;20818;-67
2022/10/29 16:39:46;;;;;;;18.70;8.53;;;22.50;99.90;;;;;;4975728;28;20509;-67
2022/10/29 16:42:27;;;;;;;13.77;7.50;;;22.50;99.90;;;;;;4975242;28;20530;-68
2022/10/29 16:44:54;;;;;;;10.97;6.37;;;22.50;99.90;;;;;;4975409;28;20505;-67
2022/10/29 16:47:22;;;;;;;12.47;6.93;;;22.40;99.90;;;;;;4975588;28;20513;-67
2022/10/29 16:49:49;;;;;;;15.20;11.30;;;22.40;99.90;;;;;;4975365;28;20506;-67
2022/10/29 16:52:16;;;;;;;16.27;10.43;;;22.30;99.90;;;;;;4975470;28;20474;-67
2022/10/29 16:54:42;;;;;;;18.70;7.20;;;22.30;99.90;;;;;;4975700;28;20451;-67
2022/10/29 16:57:09;;;;;;;14.83;8.97;;;22.20;99.90;;;;;;4975233;28;20952;-69
2022/10/29 16:59:36;;;;;;;11.87;7.60;;;22.20;99.90;;;;;;4974947;28;20461;-67
2022/10/29 17:02:03;;;;;;;13.30;7.63;;;22.20;99.90;;;;;;4974923;28;20986;-67